Yonkers, NY (10701)

8:40 PM EDT on June 22, 2017 (GMT -0400)
Getty Square | | Change Station
Active Advisory: Coastal Flood Statement Active Notice: Coastal Flood Statement

Elev 59 ft 40.93 °N, 73.90 °W | Updated 1 second ago

Partly Cloudy
Partly Cloudy
78.0 °F
Feels Like 80 °F
N
3.0
Wind Variable Wind from NW
Gusts 9.0 mph

Today
High -- | Low -- °F
--% Chance of Precip.
Yesterday
High -- | Low -- °F
Precip. -- in
Pressure 29.90 in
Visibility 10.0 miles
Clouds Few 6000 ft
Scattered Clouds 17000 ft
Mostly Cloudy 26000 ft
Heat Index 80 °F
Dew Point 66 °F
Humidity 66%
Rainfall 0.00 in
Snow Depth Not available.
5:24 AM 8:31 PM
Waning Crescent, 2% visible
METAR KLGA 222351Z 17008KT 10SM FEW060 SCT170 BKN260 26/19 A2990 RMK AO2 SLP125 T02560194 10289 20256 55008
Pressure 29.90 in
Visibility 10.0 miles
Clouds Few 6000 ft
Scattered Clouds 17000 ft
Mostly Cloudy 26000 ft
Heat Index 80 °F
Dew Point 66 °F
Humidity 66%
Rainfall 0.00 in
Snow Depth Not available.
5:24 AM 8:31 PM
Waning Crescent, 2% visible
METAR KLGA 222351Z 17008KT 10SM FEW060 SCT170 BKN260 26/19 A2990 RMK AO2 SLP125 T02560194 10289 20256 55008

Get Your Daily Forecast Email!

Thanks for signing up!

Be on the lookout for a verification email in your inbox.

You'll start receiving severe weather alerts in your inbox..

×

10-Day Weather Forecast

Almanac

Astronomy

Jun. 22, 2017 Rise Set
Actual Time
Civil Twilight
Nautical Twilight
Astronomical Twilight
Moon
Length of Visible Light
Length of Day
Tomorrow will be .
, % of the Moon is Illuminated

Today's Extremes

State Highs State Lows

Community

WunderPhotos

Category 6

Welcome to Category 6. This is the collective home for Weather Underground's featured writeups by Dr. Jeff Masters (right), Bob Henson (left), Chris Burt, and other regular contributors.

Nearby

Air Quality

  Air Quality AQ Index Pollutant
Not available.

Snow Depth

Station Depth Elevation

Earthquake Activity

City Distance Mag. Time & Date
Minimum magnitude displayed is 2.5.

Coastal Water Temperatures

Place Temperature

Stations

Nearby Weather Stations

Station Location Temp. Windchill Dew Point Humidity Wind Precip. Elev Updated Type
                   

Watches & Warnings

Coastal Flood Statement
Issued: 3:45 PM EDT Jun. 22, 2017 – National Weather Service

* locations... coastal Westchester and Fairfield counties.

* Positive tidal departures... 1/2 to 3/4 ft.

* Timing... times of high tide between 9 PM and 11 PM.

* Impacts... brief and minor flooding of the most vulnerable
shoreline and Waterfront roads and properties.